Time;durP1;ratioP1;P1;durP2;ratioP2;P2;SDS_P1;SDS_P2;PMS_P1;PMS_P2;Temp;Humidity;BMP_temperature;BMP_pressure;BME280_temperature;BME280_humidity;BME280_pressure;Samples;Min_cycle;Max_cycle;Signal;HPM_P1;HPM_P2
2021/05/06 00:10:03;;;;;;;27.08;15.70;;;;;;;;;;4947080;28;20346;-57
2021/05/06 00:32:00;;;;;;;5.05;2.58;;;;;;;;;;4945608;28;20041;-51
2021/05/06 00:34:26;;;;;;;11.82;6.75;;;;;;;;;;4940540;28;20030;-51
2021/05/06 00:36:52;;;;;;;11.15;6.40;;;;;;;;;;4945862;28;20152;-52
2021/05/06 00:39:24;;;;;;;5.85;3.40;;;;;;;;;;4945954;28;20114;-52
2021/05/06 01:03:17;;;;;;;32.33;20.30;;;;;;;;;;4957634;28;20035;-54
2021/05/06 01:05:56;;;;;;;20.90;12.35;;;;;;;;;;4956542;28;20027;-54
2021/05/06 01:08:30;;;;;;;28.20;17.88;;;;;;;;;;4957164;29;20083;-56
2021/05/06 01:11:10;;;;;;;15.45;9.32;;;;;;;;;;4957267;29;20086;-61
2021/05/06 01:13:38;;;;;;;10.30;6.28;;;;;;;;;;4957281;28;20024;-61
2021/05/06 01:16:07;;;;;;;11.63;7.25;;;;;;;;;;4957083;29;20035;-59
2021/05/06 01:18:33;;;;;;;8.57;4.15;;;;;;;;;;4957245;29;20496;-61
2021/05/06 01:21:01;;;;;;;14.23;8.48;;;;;;;;;;4957130;28;20035;-63
2021/05/06 01:23:29;;;;;;;9.85;5.38;;;;;;;;;;4957268;29;20122;-64
2021/05/06 01:28:29;;;;;;;31.65;18.35;;;;;;;;;;4957090;29;20039;-63
2021/05/06 01:36:09;;;;;;;49.75;26.73;;;;;;;;;;4956866;29;20054;-61
2021/05/06 01:46:32;;;;;;;29.50;17.70;;;;;;;;;;4956717;28;20031;-61
2021/05/06 02:00:07;;;;;;;13.77;6.00;;;;;;;;;;4956474;29;20031;-62
2021/05/06 02:02:33;;;;;;;14.77;8.35;;;;;;;;;;4956699;29;20062;-62
2021/05/06 02:04:59;;;;;;;9.35;5.32;;;;;;;;;;4956573;29;20023;-62
2021/05/06 02:07:25;;;;;;;8.27;4.93;;;;;;;;;;4956149;29;20051;-61
2021/05/06 02:09:51;;;;;;;9.40;4.28;;;;;;;;;;4956371;29;20024;-61
2021/05/06 02:12:19;;;;;;;5.93;3.42;;;;;;;;;;4956238;29;20054;-62
2021/05/06 02:14:54;;;;;;;5.55;2.92;;;;;;;;;;4956590;29;20153;-62
2021/05/06 02:17:20;;;;;;;11.18;5.82;;;;;;;;;;4955130;28;20051;-62
2021/05/06 02:19:48;;;;;;;7.47;3.67;;;;;;;;;;4956365;28;20082;-63
2021/05/06 02:22:15;;;;;;;9.20;5.40;;;;;;;;;;4955932;28;20039;-63
2021/05/06 02:24:42;;;;;;;6.68;3.72;;;;;;;;;;4956086;28;20103;-63
2021/05/06 02:27:08;;;;;;;4.82;2.70;;;;;;;;;;4956056;29;20048;-64
2021/05/06 02:29:34;;;;;;;5.75;2.92;;;;;;;;;;4955864;28;20558;-64
2021/05/06 02:32:00;;;;;;;2.17;1.42;;;;;;;;;;4956192;29;20031;-63
2021/05/06 02:34:26;;;;;;;3.40;2.10;;;;;;;;;;4956079;29;20049;-63
2021/05/06 02:36:53;;;;;;;4.78;2.17;;;;;;;;;;4955775;29;20027;-62
2021/05/06 02:39:19;;;;;;;4.25;1.85;;;;;;;;;;4955945;29;20029;-62
2021/05/06 02:41:45;;;;;;;2.90;1.10;;;;;;;;;;4955814;28;20045;-63
2021/05/06 02:44:11;;;;;;;3.30;1.90;;;;;;;;;;4938755;29;20457;-63
2021/05/06 02:46:37;;;;;;;2.40;1.25;;;;;;;;;;4955600;28;20034;-63
2021/05/06 02:49:04;;;;;;;2.30;1.25;;;;;;;;;;4955714;28;20488;-64
2021/05/06 02:51:32;;;;;;;2.47;1.10;;;;;;;;;;4955630;29;20054;-60
2021/05/06 02:53:58;;;;;;;3.90;1.23;;;;;;;;;;4955628;29;20090;-63
2021/05/06 03:04:28;;;;;;;3.97;1.00;;;;;;;;;;4896705;29;20039;-65
2021/05/06 03:07:03;;;;;;;7.22;1.35;;;;;;;;;;4896217;29;20045;-60
2021/05/06 03:14:54;;;;;;;3.75;1.48;;;;;;;;;;4896645;29;20028;-63
2021/05/06 03:22:52;;;;;;;3.75;1.33;;;;;;;;;;4896562;29;20131;-65
2021/05/06 03:25:19;;;;;;;3.15;1.13;;;;;;;;;;4896191;29;20060;-65
2021/05/06 03:27:55;;;;;;;4.53;0.98;;;;;;;;;;4897714;29;20482;-65
2021/05/06 03:46:44;;;;;;;2.63;1.05;;;;;;;;;;4958816;28;20020;-62
2021/05/06 04:27:00;;;;;;;2.10;1.00;;;;;;;;;;4958628;29;20047;-60
2021/05/06 04:37:34;;;;;;;3.63;1.80;;;;;;;;;;4958495;29;20123;-64
2021/05/06 04:40:08;;;;;;;4.35;1.25;;;;;;;;;;4957163;28;20054;-66
2021/05/06 05:06:31;;;;;;;5.15;1.60;;;;;;;;;;4898419;29;20073;-65
2021/05/06 05:11:44;;;;;;;3.00;1.30;;;;;;;;;;4898363;29;20036;-66
2021/05/06 05:25:06;;;;;;;2.63;1.30;;;;;;;;;;4898642;29;20047;-63
2021/05/06 05:27:32;;;;;;;5.60;0.90;;;;;;;;;;4898286;29;20053;-63
2021/05/06 05:29:58;;;;;;;4.30;0.98;;;;;;;;;;4898347;29;20037;-63
2021/05/06 05:32:25;;;;;;;5.47;1.55;;;;;;;;;;4897964;29;20104;-62
2021/05/06 05:34:59;;;;;;;2.90;1.10;;;;;;;;;;4904067;29;20040;-63
2021/05/06 05:37:41;;;;;;;5.15;1.00;;;;;;;;;;4957031;29;20513;-64
2021/05/06 05:40:23;;;;;;;6.45;0.98;;;;;;;;;;4956972;28;20035;-64
2021/05/06 05:56:49;;;;;;;4.72;2.15;;;;;;;;;;4860218;29;20491;-62
2021/05/06 05:59:15;;;;;;;5.18;1.38;;;;;;;;;;4860923;29;20082;-62
2021/05/06 06:01:43;;;;;;;4.10;1.00;;;;;;;;;;4860503;29;20037;-66
2021/05/06 06:04:09;;;;;;;11.30;7.95;;;;;;;;;;4860359;29;20071;-63
2021/05/06 06:06:36;;;;;;;12.82;8.43;;;;;;;;;;4860060;29;20479;-62
2021/05/06 06:09:02;;;;;;;14.75;7.57;;;;;;;;;;4860012;29;20052;-62
2021/05/06 06:11:31;;;;;;;17.80;10.10;;;;;;;;;;4860106;29;20160;-61
2021/05/06 06:14:02;;;;;;;26.35;13.27;;;;;;;;;;4859970;29;20045;-60
2021/05/06 06:16:30;;;;;;;27.05;13.32;;;;;;;;;;4859946;29;20136;-63
2021/05/06 06:18:58;;;;;;;19.90;9.93;;;;;;;;;;4859891;29;20566;-61
2021/05/06 06:23:54;;;;;;;11.98;4.60;;;;;;;;;;4896948;29;20043;-60
2021/05/06 06:26:21;;;;;;;5.05;3.00;;;;;;;;;;4896967;29;20033;-62
2021/05/06 06:28:49;;;;;;;9.85;2.80;;;;;;;;;;4897261;29;20075;-61
2021/05/06 06:31:29;;;;;;;5.68;2.13;;;;;;;;;;4897030;29;20032;-66
2021/05/06 06:33:56;;;;;;;5.15;1.85;;;;;;;;;;4933168;29;20067;-67
2021/05/06 06:36:23;;;;;;;3.55;1.40;;;;;;;;;;4955841;29;20464;-63
2021/05/06 06:38:49;;;;;;;3.28;1.50;;;;;;;;;;4955685;28;20073;-63
2021/05/06 06:41:15;;;;;;;2.03;1.27;;;;;;;;;;4955703;28;20027;-63
2021/05/06 06:43:44;;;;;;;2.03;1.33;;;;;;;;;;4955822;28;20027;-64
2021/05/06 06:46:10;;;;;;;4.00;1.15;;;;;;;;;;4955645;28;20027;-62
2021/05/06 06:48:36;;;;;;;6.60;1.60;;;;;;;;;;4955748;28;20106;-60
2021/05/06 06:51:02;;;;;;;12.40;1.40;;;;;;;;;;4955993;29;20560;-63
2021/05/06 06:53:29;;;;;;;42.97;22.50;;;;;;;;;;4955507;29;20110;-62
2021/05/06 06:55:55;;;;;;;23.80;11.77;;;;;;;;;;4955551;29;20031;-62
2021/05/06 06:58:22;;;;;;;22.15;10.57;;;;;;;;;;4955631;29;20531;-63
2021/05/06 07:00:48;;;;;;;20.85;12.38;;;;;;;;;;4955407;29;20027;-65
2021/05/06 07:03:18;;;;;;;29.92;16.77;;;;;;;;;;4955054;28;20054;-62
2021/05/06 07:05:44;;;;;;;69.70;45.17;;;;;;;;;;4955284;29;20396;-60
2021/05/06 07:08:21;;;;;;;25.73;15.93;;;;;;;;;;4955311;29;20054;-60
2021/05/06 07:10:48;;;;;;;24.33;13.93;;;;;;;;;;4955371;29;20039;-63
2021/05/06 07:13:18;;;;;;;43.13;22.15;;;;;;;;;;4955498;29;20023;-63
2021/05/06 07:15:51;;;;;;;19.63;9.55;;;;;;;;;;4955433;29;20032;-62
2021/05/06 07:18:17;;;;;;;10.00;5.38;;;;;;;;;;4955121;29;20042;-63
2021/05/06 07:20:45;;;;;;;12.77;7.28;;;;;;;;;;4955560;29;20027;-64
2021/05/06 07:23:12;;;;;;;26.08;11.00;;;;;;;;;;4955195;29;20031;-64
2021/05/06 07:25:38;;;;;;;14.77;7.82;;;;;;;;;;4955394;28;20110;-65
2021/05/06 07:28:12;;;;;;;17.60;9.68;;;;;;;;;;4955208;29;20031;-64
2021/05/06 07:30:38;;;;;;;19.40;9.18;;;;;;;;;;4955171;29;20028;-64
2021/05/06 07:33:04;;;;;;;8.02;5.43;;;;;;;;;;4955253;29;20463;-65
2021/05/06 07:35:36;;;;;;;13.57;7.57;;;;;;;;;;4955294;29;20030;-65
2021/05/06 07:38:04;;;;;;;9.23;5.75;;;;;;;;;;4955122;29;20067;-65
2021/05/06 07:40:31;;;;;;;7.90;4.40;;;;;;;;;;4954826;28;20030;-66
2021/05/06 07:42:57;;;;;;;6.40;3.90;;;;;;;;;;4955053;29;20031;-65
2021/05/06 07:45:23;;;;;;;7.05;3.30;;;;;;;;;;4954946;29;20486;-64
2021/05/06 07:47:49;;;;;;;9.65;4.30;;;;;;;;;;4954906;29;20032;-64
2021/05/06 07:50:19;;;;;;;10.55;6.07;;;;;;;;;;4938102;29;20063;-65
2021/05/06 07:52:47;;;;;;;7.82;4.28;;;;;;;;;;4955031;28;20066;-64
2021/05/06 07:55:14;;;;;;;11.20;4.30;;;;;;;;;;4954863;29;20035;-63
2021/05/06 07:57:40;;;;;;;18.77;10.40;;;;;;;;;;4954790;29;20078;-61
2021/05/06 08:00:13;;;;;;;7.65;3.85;;;;;;;;;;4955021;29;20484;-62
2021/05/06 08:02:47;;;;;;;14.95;7.20;;;;;;;;;;4954841;29;20102;-63
2021/05/06 08:05:13;;;;;;;8.10;5.82;;;;;;;;;;4954805;29;20480;-63
2021/05/06 08:07:39;;;;;;;14.23;8.32;;;;;;;;;;4954602;29;20083;-61
2021/05/06 08:10:06;;;;;;;91.60;60.35;;;;;;;;;;4954659;29;20094;-61
2021/05/06 08:12:32;;;;;;;84.95;37.05;;;;;;;;;;4954730;28;20038;-61
2021/05/06 08:14:58;;;;;;;245.68;132.13;;;;;;;;;;4958000;28;20034;-60
2021/05/06 08:17:24;;;;;;;34.65;24.73;;;;;;;;;;4958094;29;20086;-59
2021/05/06 08:19:50;;;;;;;8.52;3.95;;;;;;;;;;4958519;29;20500;-62
2021/05/06 08:22:17;;;;;;;3.72;2.03;;;;;;;;;;4958247;28;20431;-63
2021/05/06 08:24:44;;;;;;;4.97;2.47;;;;;;;;;;4958047;29;20028;-62
2021/05/06 08:27:10;;;;;;;4.82;2.60;;;;;;;;;;4958329;28;20023;-64
2021/05/06 08:29:36;;;;;;;1.80;1.00;;;;;;;;;;4958195;28;20109;-61
2021/05/06 08:32:02;;;;;;;12.57;3.85;;;;;;;;;;4958149;29;20030;-61
2021/05/06 08:34:28;;;;;;;4.80;1.70;;;;;;;;;;4958064;29;20081;-61
2021/05/06 08:36:55;;;;;;;24.63;11.52;;;;;;;;;;4958039;29;20038;-62
2021/05/06 08:39:21;;;;;;;6.95;3.60;;;;;;;;;;4957955;28;20031;-62
2021/05/06 08:41:47;;;;;;;9.25;5.70;;;;;;;;;;4957875;29;20480;-61
2021/05/06 08:44:17;;;;;;;176.68;109.90;;;;;;;;;;4957950;29;20117;-59
2021/05/06 08:49:33;;;;;;;37.75;29.92;;;;;;;;;;4898678;29;20045;-60
2021/05/06 08:52:04;;;;;;;9.10;5.28;;;;;;;;;;4898749;29;20041;-63
2021/05/06 08:54:30;;;;;;;139.50;89.97;;;;;;;;;;4898697;29;20051;-57
2021/05/06 08:56:58;;;;;;;141.55;85.32;;;;;;;;;;4898605;29;20033;-63
2021/05/06 08:59:24;;;;;;;188.43;90.22;;;;;;;;;;4898470;29;20047;-60
2021/05/06 09:01:51;;;;;;;75.45;46.10;;;;;;;;;;4898397;29;20096;-59
2021/05/06 09:04:18;;;;;;;8.93;3.22;;;;;;;;;;4898540;29;20039;-56
2021/05/06 09:06:54;;;;;;;11.38;3.70;;;;;;;;;;4898248;29;20068;-56
2021/05/06 09:09:21;;;;;;;8.32;3.50;;;;;;;;;;4898201;29;20024;-58
2021/05/06 09:11:51;;;;;;;9.32;4.43;;;;;;;;;;4898265;29;20076;-58
2021/05/06 09:14:17;;;;;;;11.88;2.33;;;;;;;;;;4898282;29;20058;-61
2021/05/06 09:16:44;;;;;;;81.13;48.25;;;;;;;;;;4897892;29;20489;-56
2021/05/06 09:19:12;;;;;;;100.43;67.53;;;;;;;;;;4900033;29;20581;-50
2021/05/06 09:21:41;;;;;;;11.70;7.47;;;;;;;;;;4905905;29;20120;-51
2021/05/06 09:24:08;;;;;;;4.25;2.67;;;;;;;;;;4905179;29;20074;-57
2021/05/06 09:26:34;;;;;;;21.25;11.80;;;;;;;;;;4932758;28;20041;-56
2021/05/06 09:29:04;;;;;;;21.55;6.45;;;;;;;;;;4965420;28;20027;-60
2021/05/06 09:31:34;;;;;;;11.35;3.40;;;;;;;;;;4964033;28;20019;-48
2021/05/06 09:34:02;;;;;;;1.85;1.27;;;;;;;;;;4958305;28;20082;-54
2021/05/06 09:36:28;;;;;;;2.85;0.98;;;;;;;;;;4963794;28;20026;-56
2021/05/06 09:38:55;;;;;;;3.13;0.90;;;;;;;;;;4965903;28;20023;-57
2021/05/06 09:41:24;;;;;;;9.55;3.00;;;;;;;;;;4964048;28;20019;-51
2021/05/06 09:43:51;;;;;;;3.42;0.90;;;;;;;;;;4964906;28;20027;-50
2021/05/06 09:46:23;;;;;;;3.50;1.00;;;;;;;;;;4966881;28;20023;-52
2021/05/06 09:48:59;;;;;;;3.30;2.20;;;;;;;;;;4966199;28;20536;-53
2021/05/06 09:51:32;;;;;;;8.50;1.65;;;;;;;;;;4965822;28;20075;-53
2021/05/06 09:53:59;;;;;;;7.38;3.22;;;;;;;;;;4964714;28;20019;-52
2021/05/06 09:56:26;;;;;;;4.78;2.33;;;;;;;;;;4966253;28;20204;-55
2021/05/06 09:58:53;;;;;;;6.47;2.72;;;;;;;;;;4966419;28;20510;-54
2021/05/06 10:01:19;;;;;;;2.78;1.60;;;;;;;;;;4964542;28;20054;-57
2021/05/06 10:03:45;;;;;;;1.65;1.00;;;;;;;;;;4965007;28;20391;-56
2021/05/06 10:06:21;;;;;;;3.70;1.00;;;;;;;;;;4965958;28;20019;-57
2021/05/06 10:08:48;;;;;;;17.63;8.10;;;;;;;;;;4965395;28;20484;-56
2021/05/06 10:11:15;;;;;;;18.98;13.93;;;;;;;;;;4964374;28;20022;-58
2021/05/06 10:13:42;;;;;;;3.53;1.98;;;;;;;;;;4966119;28;20034;-54
2021/05/06 10:16:09;;;;;;;5.32;1.63;;;;;;;;;;4965382;28;20105;-56
2021/05/06 10:18:37;;;;;;;4.13;2.10;;;;;;;;;;4964182;28;20126;-58
2021/05/06 10:21:06;;;;;;;3.17;1.05;;;;;;;;;;4965765;28;20460;-57
2021/05/06 10:23:32;;;;;;;7.65;4.38;;;;;;;;;;4965832;28;20396;-58
2021/05/06 10:25:59;;;;;;;4.85;3.25;;;;;;;;;;4964045;28;20098;-58
2021/05/06 10:28:26;;;;;;;6.18;2.88;;;;;;;;;;4947605;28;20365;-57
2021/05/06 10:30:55;;;;;;;9.27;7.05;;;;;;;;;;4965601;28;20027;-58
2021/05/06 10:33:24;;;;;;;8.75;1.70;;;;;;;;;;4965635;28;20038;-57
2021/05/06 10:35:50;;;;;;;2.92;1.10;;;;;;;;;;4965169;28;20057;-56
2021/05/06 10:38:17;;;;;;;1.88;0.70;;;;;;;;;;4962997;28;20078;-55
2021/05/06 10:40:43;;;;;;;21.38;14.35;;;;;;;;;;4965519;28;20066;-61
2021/05/06 10:43:23;;;;;;;78.47;49.25;;;;;;;;;;4965094;28;20095;-57
2021/05/06 10:45:59;;;;;;;29.58;14.93;;;;;;;;;;4965046;28;20019;-54
2021/05/06 10:48:44;;;;;;;11.57;4.60;;;;;;;;;;4952865;28;20035;-56
2021/05/06 10:51:26;;;;;;;14.02;7.90;;;;;;;;;;4970094;28;20023;-56
2021/05/06 10:53:52;;;;;;;131.07;84.05;;;;;;;;;;4974553;28;20029;-59
2021/05/06 10:56:18;;;;;;;14.13;6.72;;;;;;;;;;4974653;28;20540;-55
2021/05/06 10:58:45;;;;;;;8.95;4.35;;;;;;;;;;4974639;28;20035;-58
2021/05/06 11:01:14;;;;;;;10.90;3.15;;;;;;;;;;4974718;28;20093;-53
2021/05/06 11:03:41;;;;;;;3.60;1.50;;;;;;;;;;4974662;28;20027;-56
2021/05/06 11:06:08;;;;;;;12.48;1.80;;;;;;;;;;4974221;28;20073;-55
2021/05/06 11:08:37;;;;;;;3.45;1.00;;;;;;;;;;4973975;28;20050;-57
2021/05/06 11:11:03;;;;;;;5.05;1.75;;;;;;;;;;4975077;28;20070;-56
2021/05/06 11:13:49;;;;;;;2.45;1.40;;;;;;;;;;4974463;28;20114;-56
2021/05/06 11:16:16;;;;;;;2.42;1.20;;;;;;;;;;4974396;28;20027;-55
2021/05/06 11:18:49;;;;;;;6.90;3.17;;;;;;;;;;4974406;28;20046;-55
2021/05/06 11:21:33;;;;;;;30.33;17.95;;;;;;;;;;4974626;28;20056;-54
2021/05/06 11:24:19;;;;;;;28.92;12.23;;;;;;;;;;4974339;28;20110;-55
2021/05/06 11:26:57;;;;;;;21.13;12.05;;;;;;;;;;4974501;28;20031;-54
2021/05/06 11:29:29;;;;;;;7.53;4.82;;;;;;;;;;4974291;28;20177;-54
2021/05/06 11:31:56;;;;;;;19.92;12.52;;;;;;;;;;4973946;28;20080;-54
2021/05/06 11:34:29;;;;;;;17.45;9.57;;;;;;;;;;4973707;28;20022;-54
2021/05/06 11:37:06;;;;;;;27.38;17.02;;;;;;;;;;4974149;28;20022;-55
2021/05/06 11:39:32;;;;;;;20.65;13.63;;;;;;;;;;4973613;28;20043;-54
2021/05/06 11:41:58;;;;;;;4.15;2.05;;;;;;;;;;4973580;28;20021;-54
2021/05/06 11:44:24;;;;;;;9.05;5.60;;;;;;;;;;4973826;28;20055;-54
2021/05/06 11:46:50;;;;;;;18.98;10.77;;;;;;;;;;4956306;28;20038;-54
2021/05/06 11:49:17;;;;;;;13.30;8.52;;;;;;;;;;4975867;28;20100;-56
2021/05/06 11:51:47;;;;;;;63.78;35.70;;;;;;;;;;4986981;28;20040;-56
2021/05/06 11:54:15;;;;;;;56.50;37.80;;;;;;;;;;4977668;28;20040;-55
2021/05/06 11:56:53;;;;;;;43.10;29.08;;;;;;;;;;4953627;28;20106;-55
2021/05/06 11:59:20;;;;;;;3.05;0.90;;;;;;;;;;4955383;28;20146;-54
2021/05/06 12:01:46;;;;;;;3.00;1.45;;;;;;;;;;4952410;28;20388;-54
2021/05/06 12:04:21;;;;;;;11.82;6.95;;;;;;;;;;4953171;28;20407;-55
2021/05/06 12:06:48;;;;;;;10.65;6.55;;;;;;;;;;4953577;28;20039;-53
2021/05/06 12:09:21;;;;;;;34.97;17.20;;;;;;;;;;4952491;28;20058;-55
2021/05/06 12:11:47;;;;;;;14.13;7.72;;;;;;;;;;4953851;28;20030;-54
2021/05/06 12:14:14;;;;;;;13.68;8.07;;;;;;;;;;4950313;28;20038;-56
2021/05/06 12:16:40;;;;;;;10.50;5.53;;;;;;;;;;4950555;28;20353;-56
2021/05/06 12:19:12;;;;;;;21.95;11.73;;;;;;;;;;4955078;28;20488;-53
2021/05/06 12:21:51;;;;;;;10.45;3.42;;;;;;;;;;4936667;28;20023;-54
2021/05/06 12:24:26;;;;;;;11.57;6.65;;;;;;;;;;4947299;28;20035;-53
2021/05/06 12:26:52;;;;;;;42.55;29.80;;;;;;;;;;4948621;28;20105;-55
2021/05/06 12:29:22;;;;;;;172.70;98.25;;;;;;;;;;4948222;28;20162;-55
2021/05/06 12:31:49;;;;;;;10.60;5.70;;;;;;;;;;4947216;28;20024;-56
2021/05/06 12:34:17;;;;;;;15.85;9.18;;;;;;;;;;4949039;28;20030;-57
2021/05/06 12:36:54;;;;;;;20.05;12.55;;;;;;;;;;4947068;28;20023;-55
2021/05/06 12:39:21;;;;;;;4.93;1.70;;;;;;;;;;4953022;28;20089;-55
2021/05/06 12:41:50;;;;;;;39.78;25.05;;;;;;;;;;4951953;28;20019;-55
2021/05/06 12:44:32;;;;;;;4.88;2.95;;;;;;;;;;4933660;28;20050;-56
2021/05/06 12:47:17;;;;;;;6.40;2.55;;;;;;;;;;4951047;28;20586;-52
2021/05/06 12:49:43;;;;;;;70.65;36.17;;;;;;;;;;4950501;28;20034;-55
2021/05/06 12:52:28;;;;;;;10.35;6.15;;;;;;;;;;4952432;28;20073;-54
2021/05/06 12:54:55;;;;;;;38.53;24.98;;;;;;;;;;4949478;28;20038;-61
2021/05/06 12:57:22;;;;;;;25.55;14.73;;;;;;;;;;4944578;28;20043;-58
2021/05/06 12:59:51;;;;;;;3.97;2.58;;;;;;;;;;4945942;28;20118;-56
2021/05/06 13:02:18;;;;;;;10.45;5.95;;;;;;;;;;4945239;28;20039;-57
2021/05/06 13:04:46;;;;;;;9.88;4.38;;;;;;;;;;4948334;28;20027;-57
2021/05/06 13:07:12;;;;;;;7.03;2.35;;;;;;;;;;4946791;28;20146;-58
2021/05/06 13:09:42;;;;;;;5.63;3.03;;;;;;;;;;4947901;28;20024;-58
2021/05/06 13:12:15;;;;;;;47.72;26.27;;;;;;;;;;4947539;28;20998;-53
2021/05/06 13:14:48;;;;;;;41.30;17.80;;;;;;;;;;4946335;28;20142;-55
2021/05/06 13:17:23;;;;;;;110.40;63.75;;;;;;;;;;4947034;28;20042;-54
2021/05/06 13:19:49;;;;;;;61.75;28.77;;;;;;;;;;4949539;28;20546;-56
2021/05/06 13:22:15;;;;;;;9.75;3.15;;;;;;;;;;4949708;28;20054;-56
2021/05/06 13:24:43;;;;;;;7.53;4.25;;;;;;;;;;4951471;28;20038;-56
2021/05/06 13:27:39;;;;;;;10.52;5.35;;;;;;;;;;4951475;28;20849;-52
2021/05/06 13:30:06;;;;;;;22.65;13.93;;;;;;;;;;4871166;29;20044;-56
2021/05/06 13:32:36;;;;;;;6.93;3.53;;;;;;;;;;4870632;29;20036;-55
2021/05/06 13:35:03;;;;;;;28.45;19.45;;;;;;;;;;4872169;29;20045;-55
2021/05/06 13:37:41;;;;;;;24.10;13.88;;;;;;;;;;4870737;29;20646;-56
2021/05/06 13:40:10;;;;;;;2.92;1.38;;;;;;;;;;4871992;29;20336;-56
2021/05/06 13:42:36;;;;;;;2.13;1.25;;;;;;;;;;4872094;29;20020;-57
2021/05/06 13:45:04;;;;;;;1.85;1.58;;;;;;;;;;4870828;29;20040;-56
2021/05/06 13:47:30;;;;;;;4.70;1.50;;;;;;;;;;4867473;29;20036;-54
2021/05/06 13:49:56;;;;;;;3.17;1.75;;;;;;;;;;4870954;29;20389;-55
2021/05/06 13:52:25;;;;;;;4.45;1.30;;;;;;;;;;4871831;29;20838;-55
2021/05/06 13:54:54;;;;;;;2.83;1.50;;;;;;;;;;4867580;29;20029;-55
2021/05/06 13:57:25;;;;;;;8.45;5.47;;;;;;;;;;4870586;29;20096;-54
2021/05/06 13:59:53;;;;;;;15.82;10.32;;;;;;;;;;4869940;29;20055;-54
2021/05/06 14:02:20;;;;;;;34.35;16.35;;;;;;;;;;4870515;29;21494;-53
2021/05/06 14:04:47;;;;;;;7.35;3.72;;;;;;;;;;4869826;29;20032;-53
2021/05/06 14:07:13;;;;;;;57.67;34.65;;;;;;;;;;4926244;28;20042;-53
2021/05/06 14:09:41;;;;;;;52.17;33.67;;;;;;;;;;4951361;28;20030;-54
2021/05/06 14:12:07;;;;;;;33.20;18.80;;;;;;;;;;4950655;28;20558;-54
2021/05/06 14:14:33;;;;;;;3.33;2.40;;;;;;;;;;4952103;28;20035;-53
2021/05/06 14:17:01;;;;;;;7.18;3.85;;;;;;;;;;4951148;28;20431;-53
2021/05/06 14:19:27;;;;;;;9.55;3.50;;;;;;;;;;4949811;28;20473;-55
2021/05/06 14:21:55;;;;;;;7.22;2.22;;;;;;;;;;4951078;28;20250;-54
2021/05/06 14:24:21;;;;;;;7.03;2.78;;;;;;;;;;4950980;28;20035;-54
2021/05/06 14:26:49;;;;;;;7.35;3.58;;;;;;;;;;4932270;28;20574;-54
2021/05/06 14:29:16;;;;;;;58.30;34.92;;;;;;;;;;4945386;28;20078;-54
2021/05/06 14:31:42;;;;;;;12.85;7.55;;;;;;;;;;4945012;28;20031;-53
2021/05/06 14:34:08;;;;;;;13.00;7.32;;;;;;;;;;4945085;28;20581;-54
2021/05/06 14:36:34;;;;;;;28.92;17.60;;;;;;;;;;4945362;28;20054;-54
2021/05/06 14:39:02;;;;;;;4.90;3.35;;;;;;;;;;4945348;28;20038;-53
2021/05/06 14:41:29;;;;;;;6.88;2.20;;;;;;;;;;4945892;28;20050;-53
2021/05/06 14:43:57;;;;;;;6.50;1.58;;;;;;;;;;4939077;28;20484;-53
2021/05/06 14:46:23;;;;;;;4.95;2.03;;;;;;;;;;4944918;28;20111;-54
2021/05/06 14:48:52;;;;;;;10.63;7.20;;;;;;;;;;4944674;28;20491;-54
2021/05/06 14:51:18;;;;;;;3.35;1.35;;;;;;;;;;4946673;28;20029;-54
2021/05/06 14:53:44;;;;;;;2.08;1.20;;;;;;;;;;4944745;28;20531;-53
2021/05/06 14:56:10;;;;;;;2.72;1.50;;;;;;;;;;4945854;28;20114;-53
2021/05/06 14:58:37;;;;;;;8.55;1.52;;;;;;;;;;4944897;28;20133;-53
2021/05/06 15:01:03;;;;;;;4.60;1.58;;;;;;;;;;4946218;28;20476;-54
2021/05/06 15:03:29;;;;;;;9.63;4.57;;;;;;;;;;4944475;28;20034;-54
2021/05/06 15:05:56;;;;;;;7.20;4.75;;;;;;;;;;4944974;28;20029;-54
2021/05/06 15:08:22;;;;;;;21.15;13.75;;;;;;;;;;4944462;28;20065;-54
2021/05/06 15:10:48;;;;;;;4.35;2.35;;;;;;;;;;4944584;28;20113;-55
2021/05/06 15:13:14;;;;;;;2.53;1.42;;;;;;;;;;4944869;28;20031;-54
2021/05/06 15:15:41;;;;;;;10.68;6.65;;;;;;;;;;4944584;28;20523;-54
2021/05/06 15:18:07;;;;;;;4.90;2.03;;;;;;;;;;4944462;28;20043;-55
2021/05/06 15:20:34;;;;;;;5.65;3.17;;;;;;;;;;4944561;28;21215;-54
2021/05/06 15:23:01;;;;;;;7.40;1.83;;;;;;;;;;4926951;28;20023;-54
2021/05/06 15:25:29;;;;;;;9.82;2.10;;;;;;;;;;4944378;28;20026;-55
2021/05/06 15:27:58;;;;;;;3.42;1.50;;;;;;;;;;4945785;28;20540;-54
2021/05/06 15:30:24;;;;;;;4.25;1.67;;;;;;;;;;4944825;28;20043;-54
2021/05/06 15:32:53;;;;;;;6.75;1.70;;;;;;;;;;4944507;28;20468;-54
2021/05/06 15:35:19;;;;;;;3.58;1.75;;;;;;;;;;4944375;28;20482;-54
2021/05/06 15:37:45;;;;;;;7.40;2.65;;;;;;;;;;4946447;28;20062;-54
2021/05/06 15:40:15;;;;;;;5.25;1.80;;;;;;;;;;4943925;28;20153;-54
2021/05/06 15:42:41;;;;;;;4.13;2.10;;;;;;;;;;4945549;28;20023;-53
2021/05/06 15:45:09;;;;;;;3.30;1.98;;;;;;;;;;4944318;28;20023;-56
2021/05/06 15:47:35;;;;;;;3.20;1.58;;;;;;;;;;4943941;28;20027;-56
2021/05/06 15:50:04;;;;;;;3.97;1.33;;;;;;;;;;4944567;28;20538;-55
2021/05/06 15:52:30;;;;;;;2.85;1.40;;;;;;;;;;4945759;28;20034;-54
2021/05/06 15:54:56;;;;;;;3.55;2.30;;;;;;;;;;4941590;28;20031;-54
2021/05/06 15:57:25;;;;;;;4.93;2.05;;;;;;;;;;4945578;28;20063;-54
2021/05/06 15:59:51;;;;;;;4.57;1.50;;;;;;;;;;4943671;28;20035;-54
2021/05/06 16:02:20;;;;;;;5.47;2.00;;;;;;;;;;4944000;28;20066;-55
2021/05/06 16:04:51;;;;;;;4.13;1.55;;;;;;;;;;4945452;28;20022;-54
2021/05/06 16:07:17;;;;;;;4.38;1.80;;;;;;;;;;4944112;28;20586;-54
2021/05/06 16:09:43;;;;;;;9.18;4.38;;;;;;;;;;4944876;28;20034;-53
2021/05/06 16:12:11;;;;;;;12.02;6.53;;;;;;;;;;4944063;28;20042;-54
2021/05/06 16:14:38;;;;;;;15.38;6.97;;;;;;;;;;4943951;28;20034;-54
2021/05/06 16:17:04;;;;;;;33.30;16.27;;;;;;;;;;4944861;28;20038;-55
2021/05/06 16:19:30;;;;;;;31.75;15.25;;;;;;;;;;4943930;28;20043;-55
2021/05/06 16:21:56;;;;;;;22.48;10.35;;;;;;;;;;4944552;28;20428;-55
2021/05/06 16:24:24;;;;;;;7.63;4.35;;;;;;;;;;4944084;28;20073;-54
2021/05/06 16:26:52;;;;;;;8.32;3.97;;;;;;;;;;4943732;28;20128;-57
2021/05/06 16:29:18;;;;;;;6.30;2.80;;;;;;;;;;4943927;28;20035;-54
2021/05/06 16:31:45;;;;;;;14.18;6.70;;;;;;;;;;4943788;28;20023;-56
2021/05/06 16:34:13;;;;;;;8.95;4.50;;;;;;;;;;4944069;28;20636;-55
2021/05/06 16:36:45;;;;;;;12.60;7.32;;;;;;;;;;4947502;28;20105;-59
2021/05/06 16:42:01;;;;;;;6.78;3.50;;;;;;;;;;4949087;28;20024;-53
2021/05/06 16:44:30;;;;;;;5.72;3.60;;;;;;;;;;4948002;28;20062;-55
2021/05/06 16:46:58;;;;;;;4.43;2.03;;;;;;;;;;4947112;28;20045;-56
2021/05/06 16:49:25;;;;;;;5.57;2.92;;;;;;;;;;4947203;28;20023;-56
2021/05/06 16:51:51;;;;;;;11.52;5.75;;;;;;;;;;4947040;28;20023;-53
2021/05/06 16:54:19;;;;;;;10.43;4.57;;;;;;;;;;4946993;28;20034;-55
2021/05/06 16:56:45;;;;;;;7.30;5.13;;;;;;;;;;4947086;28;20023;-57
2021/05/06 16:59:11;;;;;;;6.35;2.47;;;;;;;;;;4946720;28;20059;-57
2021/05/06 17:01:39;;;;;;;4.72;3.22;;;;;;;;;;4946982;28;20828;-57
2021/05/06 17:04:05;;;;;;;4.30;2.35;;;;;;;;;;4946996;28;20534;-57
2021/05/06 17:06:31;;;;;;;8.35;4.07;;;;;;;;;;4946657;28;20071;-56
2021/05/06 17:08:58;;;;;;;2.83;1.88;;;;;;;;;;4946750;28;20031;-58
2021/05/06 17:11:25;;;;;;;8.93;2.13;;;;;;;;;;4946919;28;20055;-54
2021/05/06 17:13:51;;;;;;;5.13;1.65;;;;;;;;;;4946972;28;20023;-58
2021/05/06 17:16:17;;;;;;;7.45;1.95;;;;;;;;;;4946334;28;20031;-57
2021/05/06 17:18:45;;;;;;;4.60;2.05;;;;;;;;;;4946931;28;20218;-59
2021/05/06 17:21:12;;;;;;;4.93;2.05;;;;;;;;;;4948128;28;20145;-58
2021/05/06 17:23:38;;;;;;;3.35;2.17;;;;;;;;;;4946563;28;20029;-59
2021/05/06 17:26:04;;;;;;;5.95;2.50;;;;;;;;;;4946449;28;20034;-52
2021/05/06 17:28:30;;;;;;;4.32;1.90;;;;;;;;;;4946425;28;20376;-51
2021/05/06 17:30:56;;;;;;;4.93;1.95;;;;;;;;;;4946063;28;20130;-53
2021/05/06 17:33:24;;;;;;;4.63;1.85;;;;;;;;;;4946391;28;20054;-53
2021/05/06 17:35:50;;;;;;;3.42;2.00;;;;;;;;;;4946703;28;20448;-53
2021/05/06 17:38:19;;;;;;;3.00;1.50;;;;;;;;;;4946390;28;20417;-54
2021/05/06 17:40:45;;;;;;;3.55;2.05;;;;;;;;;;4948187;28;20126;-53
2021/05/06 17:43:13;;;;;;;4.43;1.90;;;;;;;;;;4945987;28;20023;-52
2021/05/06 17:45:39;;;;;;;8.27;2.03;;;;;;;;;;4946531;28;20020;-53
2021/05/06 17:48:09;;;;;;;3.03;1.63;;;;;;;;;;4945847;28;20034;-52
2021/05/06 17:50:38;;;;;;;2.50;1.45;;;;;;;;;;4947251;28;20193;-52
2021/05/06 17:53:04;;;;;;;7.15;2.70;;;;;;;;;;4943519;28;20432;-53
2021/05/06 17:55:33;;;;;;;7.32;3.28;;;;;;;;;;4945651;28;20034;-53
2021/05/06 17:57:59;;;;;;;9.95;3.95;;;;;;;;;;4945898;28;20744;-53
2021/05/06 18:00:26;;;;;;;7.18;3.42;;;;;;;;;;4945540;28;20074;-51
2021/05/06 18:02:52;;;;;;;12.48;3.47;;;;;;;;;;4946578;28;20531;-56
2021/05/06 18:05:18;;;;;;;11.63;3.95;;;;;;;;;;4947667;28;20070;-50
2021/05/06 18:07:45;;;;;;;8.27;4.18;;;;;;;;;;4945387;28;20047;-54
2021/05/06 18:10:19;;;;;;;8.60;3.47;;;;;;;;;;4945641;28;20037;-52
2021/05/06 18:12:45;;;;;;;8.07;3.95;;;;;;;;;;4946269;28;20027;-54
2021/05/06 18:15:12;;;;;;;11.52;4.50;;;;;;;;;;4945309;28;20468;-54
2021/05/06 18:17:38;;;;;;;12.52;5.13;;;;;;;;;;4945950;28;20076;-54